sensor_id;sensor_type;location;lat;lon;timestamp;temperature;humidity
23803;DHT22;12082;51.786;6.018;2023-06-05T00:01:02;10.60;99.90
23803;DHT22;12082;51.786;6.018;2023-06-05T00:03:28;10.40;99.90
23803;DHT22;12082;51.786;6.018;2023-06-05T00:05:55;10.40;99.90
23803;DHT22;12082;51.786;6.018;2023-06-05T00:08:21;10.40;99.90
23803;DHT22;12082;51.786;6.018;2023-06-05T00:10:46;10.30;99.90
23803;DHT22;12082;51.786;6.018;2023-06-05T00:13:13;10.20;99.90
23803;DHT22;12082;51.786;6.018;2023-06-05T00:15:38;10.20;99.90
23803;DHT22;12082;51.786;6.018;2023-06-05T00:18:04;10.20;99.90
23803;DHT22;12082;51.786;6.018;2023-06-05T00:20:30;10.10;99.90
23803;DHT22;12082;51.786;6.018;2023-06-05T00:22:56;10.10;99.90
23803;DHT22;12082;51.786;6.018;2023-06-05T00:25:22;10.10;99.90
23803;DHT22;12082;51.786;6.018;2023-06-05T00:27:47;10.10;99.90
23803;DHT22;12082;51.786;6.018;2023-06-05T00:30:13;10.00;99.90
23803;DHT22;12082;51.786;6.018;2023-06-05T00:32:39;10.00;99.90
23803;DHT22;12082;51.786;6.018;2023-06-05T00:35:06;9.90;99.90
23803;DHT22;12082;51.786;6.018;2023-06-05T00:37:32;9.90;99.90
23803;DHT22;12082;51.786;6.018;2023-06-05T00:39:59;9.90;99.90
23803;DHT22;12082;51.786;6.018;2023-06-05T00:42:25;9.90;99.90
23803;DHT22;12082;51.786;6.018;2023-06-05T00:44:52;9.90;99.90
23803;DHT22;12082;51.786;6.018;2023-06-05T00:47:17;9.80;99.90
23803;DHT22;12082;51.786;6.018;2023-06-05T00:49:43;9.80;99.90
23803;DHT22;12082;51.786;6.018;2023-06-05T00:52:09;9.80;99.90
23803;DHT22;12082;51.786;6.018;2023-06-05T00:54:34;9.80;99.90
23803;DHT22;12082;51.786;6.018;2023-06-05T00:57:00;9.80;99.90
23803;DHT22;12082;51.786;6.018;2023-06-05T00:59:26;9.80;99.90
23803;DHT22;12082;51.786;6.018;2023-06-05T01:01:52;9.80;99.90
23803;DHT22;12082;51.786;6.018;2023-06-05T01:04:18;9.80;99.90
23803;DHT22;12082;51.786;6.018;2023-06-05T01:06:44;9.70;99.90
23803;DHT22;12082;51.786;6.018;2023-06-05T01:09:11;9.70;99.90
23803;DHT22;12082;51.786;6.018;2023-06-05T01:11:52;9.80;99.90
23803;DHT22;12082;51.786;6.018;2023-06-05T01:14:21;9.70;99.90
23803;DHT22;12082;51.786;6.018;2023-06-05T01:16:53;9.60;99.90
23803;DHT22;12082;51.786;6.018;2023-06-05T01:19:20;9.50;99.90
23803;DHT22;12082;51.786;6.018;2023-06-05T01:21:49;9.50;99.90
23803;DHT22;12082;51.786;6.018;2023-06-05T01:24:15;9.50;99.90
23803;DHT22;12082;51.786;6.018;2023-06-05T01:29:43;9.50;99.90
23803;DHT22;12082;51.786;6.018;2023-06-05T01:32:43;9.50;99.90
23803;DHT22;12082;51.786;6.018;2023-06-05T01:35:12;9.50;99.90
23803;DHT22;12082;51.786;6.018;2023-06-05T01:37:45;9.50;99.90
23803;DHT22;12082;51.786;6.018;2023-06-05T01:40:16;9.50;99.90
23803;DHT22;12082;51.786;6.018;2023-06-05T01:42:42;9.50;99.90
23803;DHT22;12082;51.786;6.018;2023-06-05T01:45:09;9.50;99.90
23803;DHT22;12082;51.786;6.018;2023-06-05T01:47:36;9.50;99.90
23803;DHT22;12082;51.786;6.018;2023-06-05T01:50:03;9.50;99.90
23803;DHT22;12082;51.786;6.018;2023-06-05T01:52:29;9.40;99.90
23803;DHT22;12082;51.786;6.018;2023-06-05T01:54:54;9.50;99.90
23803;DHT22;12082;51.786;6.018;2023-06-05T01:57:20;9.50;99.90
23803;DHT22;12082;51.786;6.018;2023-06-05T01:59:46;9.50;99.90
23803;DHT22;12082;51.786;6.018;2023-06-05T02:02:12;9.50;99.90
23803;DHT22;12082;51.786;6.018;2023-06-05T02:04:39;9.50;99.90
23803;DHT22;12082;51.786;6.018;2023-06-05T02:07:05;9.50;99.90
23803;DHT22;12082;51.786;6.018;2023-06-05T02:09:32;9.50;99.90
23803;DHT22;12082;51.786;6.018;2023-06-05T02:11:58;9.50;99.90
23803;DHT22;12082;51.786;6.018;2023-06-05T02:14:32;9.40;99.90
23803;DHT22;12082;51.786;6.018;2023-06-05T02:17:04;9.40;99.90
23803;DHT22;12082;51.786;6.018;2023-06-05T02:19:35;9.40;99.90
23803;DHT22;12082;51.786;6.018;2023-06-05T02:22:00;9.30;99.90
23803;DHT22;12082;51.786;6.018;2023-06-05T02:24:26;9.30;99.90
23803;DHT22;12082;51.786;6.018;2023-06-05T02:26:52;9.20;99.90
23803;DHT22;12082;51.786;6.018;2023-06-05T02:29:18;9.20;99.90
23803;DHT22;12082;51.786;6.018;2023-06-05T02:31:43;9.10;99.90
23803;DHT22;12082;51.786;6.018;2023-06-05T02:34:09;9.00;99.90
23803;DHT22;12082;51.786;6.018;2023-06-05T02:36:35;9.00;99.90
23803;DHT22;12082;51.786;6.018;2023-06-05T02:39:04;9.00;99.90
23803;DHT22;12082;51.786;6.018;2023-06-05T02:41:32;9.00;99.90
23803;DHT22;12082;51.786;6.018;2023-06-05T02:43:58;9.00;99.90
23803;DHT22;12082;51.786;6.018;2023-06-05T02:46:25;8.90;99.90
23803;DHT22;12082;51.786;6.018;2023-06-05T02:48:51;8.90;99.90
23803;DHT22;12082;51.786;6.018;2023-06-05T02:51:17;8.90;99.90
23803;DHT22;12082;51.786;6.018;2023-06-05T02:53:42;8.90;99.90
23803;DHT22;12082;51.786;6.018;2023-06-05T02:56:08;8.90;99.90
23803;DHT22;12082;51.786;6.018;2023-06-05T02:58:34;8.90;99.90
23803;DHT22;12082;51.786;6.018;2023-06-05T03:01:00;8.90;99.90
23803;DHT22;12082;51.786;6.018;2023-06-05T03:03:32;8.90;99.90
23803;DHT22;12082;51.786;6.018;2023-06-05T03:06:01;8.90;99.90
23803;DHT22;12082;51.786;6.018;2023-06-05T03:08:31;8.90;99.90
23803;DHT22;12082;51.786;6.018;2023-06-05T03:10:58;8.90;99.90
23803;DHT22;12082;51.786;6.018;2023-06-05T03:13:24;8.90;99.90
23803;DHT22;12082;51.786;6.018;2023-06-05T03:15:49;8.90;99.90
23803;DHT22;12082;51.786;6.018;2023-06-05T03:18:21;8.90;99.90
23803;DHT22;12082;51.786;6.018;2023-06-05T03:20:47;8.80;99.90
23803;DHT22;12082;51.786;6.018;2023-06-05T03:23:15;8.90;99.90
23803;DHT22;12082;51.786;6.018;2023-06-05T03:25:41;8.90;99.90
23803;DHT22;12082;51.786;6.018;2023-06-05T03:28:07;8.90;99.90
23803;DHT22;12082;51.786;6.018;2023-06-05T03:30:33;8.90;99.90
23803;DHT22;12082;51.786;6.018;2023-06-05T03:32:58;8.90;99.90
23803;DHT22;12082;51.786;6.018;2023-06-05T03:35:24;8.90;99.90
23803;DHT22;12082;51.786;6.018;2023-06-05T03:37:49;8.80;99.90
23803;DHT22;12082;51.786;6.018;2023-06-05T03:40:15;8.80;99.90
23803;DHT22;12082;51.786;6.018;2023-06-05T03:42:40;8.80;99.90
23803;DHT22;12082;51.786;6.018;2023-06-05T03:45:06;8.80;99.90
23803;DHT22;12082;51.786;6.018;2023-06-05T03:47:33;8.80;99.90
23803;DHT22;12082;51.786;6.018;2023-06-05T03:49:59;8.80;99.90
23803;DHT22;12082;51.786;6.018;2023-06-05T03:52:26;8.80;99.90
23803;DHT22;12082;51.786;6.018;2023-06-05T03:54:51;8.80;99.90
23803;DHT22;12082;51.786;6.018;2023-06-05T03:57:20;8.80;99.90
23803;DHT22;12082;51.786;6.018;2023-06-05T03:59:46;8.80;99.90
23803;DHT22;12082;51.786;6.018;2023-06-05T04:02:14;8.90;99.90
23803;DHT22;12082;51.786;6.018;2023-06-05T04:04:40;8.90;99.90
23803;DHT22;12082;51.786;6.018;2023-06-05T04:07:06;8.90;99.90
23803;DHT22;12082;51.786;6.018;2023-06-05T04:09:32;9.00;99.90
23803;DHT22;12082;51.786;6.018;2023-06-05T04:11:57;9.00;99.90
23803;DHT22;12082;51.786;6.018;2023-06-05T04:14:24;9.10;99.90
23803;DHT22;12082;51.786;6.018;2023-06-05T04:16:49;9.10;99.90
23803;DHT22;12082;51.786;6.018;2023-06-05T04:19:15;9.20;99.90
23803;DHT22;12082;51.786;6.018;2023-06-05T04:21:41;9.20;99.90
23803;DHT22;12082;51.786;6.018;2023-06-05T04:24:08;9.20;99.90
23803;DHT22;12082;51.786;6.018;2023-06-05T04:26:35;9.30;99.90
23803;DHT22;12082;51.786;6.018;2023-06-05T04:29:02;9.30;99.90
23803;DHT22;12082;51.786;6.018;2023-06-05T04:31:32;9.40;99.90
23803;DHT22;12082;51.786;6.018;2023-06-05T04:33:59;9.40;99.90
23803;DHT22;12082;51.786;6.018;2023-06-05T04:36:28;9.50;99.90
23803;DHT22;12082;51.786;6.018;2023-06-05T04:38:53;9.60;99.90
23803;DHT22;12082;51.786;6.018;2023-06-05T04:41:19;9.60;99.90
23803;DHT22;12082;51.786;6.018;2023-06-05T04:43:46;9.60;99.90
23803;DHT22;12082;51.786;6.018;2023-06-05T04:46:12;9.70;99.90
23803;DHT22;12082;51.786;6.018;2023-06-05T04:48:38;9.80;99.90
23803;DHT22;12082;51.786;6.018;2023-06-05T04:51:03;9.80;99.90
23803;DHT22;12082;51.786;6.018;2023-06-05T04:53:29;9.90;99.90
23803;DHT22;12082;51.786;6.018;2023-06-05T04:55:57;9.90;99.90
23803;DHT22;12082;51.786;6.018;2023-06-05T04:58:27;10.00;99.90
23803;DHT22;12082;51.786;6.018;2023-06-05T05:00:52;10.00;99.90
23803;DHT22;12082;51.786;6.018;2023-06-05T05:03:18;10.10;99.90
23803;DHT22;12082;51.786;6.018;2023-06-05T05:05:44;10.20;99.90
23803;DHT22;12082;51.786;6.018;2023-06-05T05:08:09;10.20;99.90
23803;DHT22;12082;51.786;6.018;2023-06-05T05:10:35;10.30;99.90
23803;DHT22;12082;51.786;6.018;2023-06-05T05:13:00;10.40;99.90
23803;DHT22;12082;51.786;6.018;2023-06-05T05:15:27;10.40;99.90
23803;DHT22;12082;51.786;6.018;2023-06-05T05:17:54;10.50;99.90
23803;DHT22;12082;51.786;6.018;2023-06-05T05:20:21;10.50;99.90
23803;DHT22;12082;51.786;6.018;2023-06-05T05:22:47;10.60;99.90
23803;DHT22;12082;51.786;6.018;2023-06-05T05:25:13;10.60;99.90
23803;DHT22;12082;51.786;6.018;2023-06-05T05:27:38;10.70;99.90
23803;DHT22;12082;51.786;6.018;2023-06-05T05:30:04;10.80;99.90
23803;DHT22;12082;51.786;6.018;2023-06-05T05:32:30;10.90;99.90
23803;DHT22;12082;51.786;6.018;2023-06-05T05:34:55;11.00;99.90
23803;DHT22;12082;51.786;6.018;2023-06-05T05:37:21;11.30;99.90
23803;DHT22;12082;51.786;6.018;2023-06-05T05:39:47;11.60;99.90
23803;DHT22;12082;51.786;6.018;2023-06-05T05:42:13;12.40;99.90
23803;DHT22;12082;51.786;6.018;2023-06-05T05:44:38;13.20;99.90
23803;DHT22;12082;51.786;6.018;2023-06-05T05:47:07;14.10;99.90
23803;DHT22;12082;51.786;6.018;2023-06-05T05:49:33;14.70;99.90
23803;DHT22;12082;51.786;6.018;2023-06-05T05:51:59;15.30;99.90
23803;DHT22;12082;51.786;6.018;2023-06-05T05:54:25;15.90;99.90
23803;DHT22;12082;51.786;6.018;2023-06-05T05:56:53;16.20;99.90
23803;DHT22;12082;51.786;6.018;2023-06-05T05:59:19;16.60;99.90
23803;DHT22;12082;51.786;6.018;2023-06-05T06:01:45;16.70;99.90
23803;DHT22;12082;51.786;6.018;2023-06-05T06:04:11;17.00;99.90
23803;DHT22;12082;51.786;6.018;2023-06-05T06:06:37;17.10;99.90
23803;DHT22;12082;51.786;6.018;2023-06-05T06:09:05;17.30;99.90
23803;DHT22;12082;51.786;6.018;2023-06-05T06:11:33;17.50;99.90
23803;DHT22;12082;51.786;6.018;2023-06-05T06:13:59;17.70;99.90
23803;DHT22;12082;51.786;6.018;2023-06-05T06:16:25;17.70;99.90
23803;DHT22;12082;51.786;6.018;2023-06-05T06:18:51;18.10;99.90
23803;DHT22;12082;51.786;6.018;2023-06-05T06:21:17;18.20;99.90
23803;DHT22;12082;51.786;6.018;2023-06-05T06:23:44;18.40;99.90
23803;DHT22;12082;51.786;6.018;2023-06-05T06:26:10;18.20;99.90
23803;DHT22;12082;51.786;6.018;2023-06-05T06:28:37;18.40;99.90
23803;DHT22;12082;51.786;6.018;2023-06-05T06:31:03;18.40;99.90
23803;DHT22;12082;51.786;6.018;2023-06-05T06:33:28;18.40;99.90
23803;DHT22;12082;51.786;6.018;2023-06-05T06:35:54;18.20;99.90
23803;DHT22;12082;51.786;6.018;2023-06-05T06:38:24;18.30;99.90
23803;DHT22;12082;51.786;6.018;2023-06-05T06:40:56;18.60;99.90
23803;DHT22;12082;51.786;6.018;2023-06-05T06:43:21;18.60;99.90
23803;DHT22;12082;51.786;6.018;2023-06-05T06:45:47;18.70;99.90
23803;DHT22;12082;51.786;6.018;2023-06-05T06:48:15;18.90;99.90
23803;DHT22;12082;51.786;6.018;2023-06-05T06:50:42;18.50;99.90
23803;DHT22;12082;51.786;6.018;2023-06-05T06:53:08;18.70;99.90
23803;DHT22;12082;51.786;6.018;2023-06-05T06:55:33;19.00;99.90
23803;DHT22;12082;51.786;6.018;2023-06-05T06:57:59;18.80;99.90
23803;DHT22;12082;51.786;6.018;2023-06-05T07:00:25;18.90;99.90
23803;DHT22;12082;51.786;6.018;2023-06-05T07:02:51;18.80;99.90
23803;DHT22;12082;51.786;6.018;2023-06-05T07:05:16;19.10;99.90
23803;DHT22;12082;51.786;6.018;2023-06-05T07:07:45;19.30;99.90
23803;DHT22;12082;51.786;6.018;2023-06-05T07:10:10;19.10;99.90
23803;DHT22;12082;51.786;6.018;2023-06-05T07:12:36;19.30;99.90
23803;DHT22;12082;51.786;6.018;2023-06-05T07:15:02;19.40;99.90
23803;DHT22;12082;51.786;6.018;2023-06-05T07:17:28;19.30;99.90
23803;DHT22;12082;51.786;6.018;2023-06-05T07:19:58;19.50;99.90
23803;DHT22;12082;51.786;6.018;2023-06-05T07:22:24;19.30;99.90
23803;DHT22;12082;51.786;6.018;2023-06-05T07:24:54;19.10;99.90
23803;DHT22;12082;51.786;6.018;2023-06-05T07:27:20;19.20;99.90
23803;DHT22;12082;51.786;6.018;2023-06-05T07:29:46;19.20;99.90
23803;DHT22;12082;51.786;6.018;2023-06-05T07:32:12;19.00;99.90
23803;DHT22;12082;51.786;6.018;2023-06-05T07:34:38;19.00;99.90
23803;DHT22;12082;51.786;6.018;2023-06-05T07:37:04;19.30;99.90
23803;DHT22;12082;51.786;6.018;2023-06-05T07:39:32;19.30;99.90
23803;DHT22;12082;51.786;6.018;2023-06-05T07:41:58;19.60;99.90
23803;DHT22;12082;51.786;6.018;2023-06-05T07:44:24;19.40;99.90
23803;DHT22;12082;51.786;6.018;2023-06-05T07:46:50;19.90;99.90
23803;DHT22;12082;51.786;6.018;2023-06-05T07:49:16;19.20;99.90
23803;DHT22;12082;51.786;6.018;2023-06-05T07:51:42;19.50;99.90
23803;DHT22;12082;51.786;6.018;2023-06-05T07:54:12;19.60;99.90
23803;DHT22;12082;51.786;6.018;2023-06-05T07:56:38;19.90;99.90
23803;DHT22;12082;51.786;6.018;2023-06-05T07:59:05;20.10;99.90
23803;DHT22;12082;51.786;6.018;2023-06-05T08:01:32;20.30;99.90
23803;DHT22;12082;51.786;6.018;2023-06-05T08:04:05;20.40;99.90
23803;DHT22;12082;51.786;6.018;2023-06-05T08:06:32;19.80;99.90
23803;DHT22;12082;51.786;6.018;2023-06-05T08:09:01;20.00;99.90
23803;DHT22;12082;51.786;6.018;2023-06-05T08:11:27;20.30;99.90
23803;DHT22;12082;51.786;6.018;2023-06-05T08:13:56;20.40;99.90
23803;DHT22;12082;51.786;6.018;2023-06-05T08:16:22;20.40;99.90
23803;DHT22;12082;51.786;6.018;2023-06-05T08:18:48;20.60;99.90
23803;DHT22;12082;51.786;6.018;2023-06-05T08:21:13;20.60;99.90
23803;DHT22;12082;51.786;6.018;2023-06-05T08:23:39;20.60;99.90
23803;DHT22;12082;51.786;6.018;2023-06-05T08:26:05;20.70;99.90
23803;DHT22;12082;51.786;6.018;2023-06-05T08:28:40;20.70;99.90
23803;DHT22;12082;51.786;6.018;2023-06-05T08:31:09;20.60;99.90
23803;DHT22;12082;51.786;6.018;2023-06-05T08:33:36;20.50;99.90
23803;DHT22;12082;51.786;6.018;2023-06-05T08:36:03;20.10;99.90
23803;DHT22;12082;51.786;6.018;2023-06-05T08:38:29;20.40;99.90
23803;DHT22;12082;51.786;6.018;2023-06-05T08:41:21;20.50;99.90
23803;DHT22;12082;51.786;6.018;2023-06-05T08:43:49;20.80;99.90
23803;DHT22;12082;51.786;6.018;2023-06-05T08:46:14;20.70;99.90
23803;DHT22;12082;51.786;6.018;2023-06-05T08:48:43;20.90;99.90
23803;DHT22;12082;51.786;6.018;2023-06-05T08:51:14;21.00;99.90
23803;DHT22;12082;51.786;6.018;2023-06-05T08:53:42;20.80;99.90
23803;DHT22;12082;51.786;6.018;2023-06-05T08:56:11;20.50;99.90
23803;DHT22;12082;51.786;6.018;2023-06-05T08:58:37;20.70;99.90
23803;DHT22;12082;51.786;6.018;2023-06-05T09:01:03;20.70;99.90
23803;DHT22;12082;51.786;6.018;2023-06-05T09:03:29;21.00;99.90
23803;DHT22;12082;51.786;6.018;2023-06-05T09:05:54;20.80;99.90
23803;DHT22;12082;51.786;6.018;2023-06-05T09:08:32;21.00;99.90
23803;DHT22;12082;51.786;6.018;2023-06-05T09:11:26;21.10;99.90
23803;DHT22;12082;51.786;6.018;2023-06-05T09:13:56;21.00;99.90
23803;DHT22;12082;51.786;6.018;2023-06-05T09:16:31;21.10;99.90
23803;DHT22;12082;51.786;6.018;2023-06-05T09:18:58;21.30;99.90
23803;DHT22;12082;51.786;6.018;2023-06-05T09:21:25;21.10;99.90
23803;DHT22;12082;51.786;6.018;2023-06-05T09:24:14;21.10;99.90
23803;DHT22;12082;51.786;6.018;2023-06-05T09:26:55;21.00;99.90
23803;DHT22;12082;51.786;6.018;2023-06-05T09:29:22;21.20;99.90
23803;DHT22;12082;51.786;6.018;2023-06-05T09:31:49;21.50;99.90
23803;DHT22;12082;51.786;6.018;2023-06-05T09:34:30;21.60;99.90
23803;DHT22;12082;51.786;6.018;2023-06-05T09:37:00;21.70;99.90
23803;DHT22;12082;51.786;6.018;2023-06-05T09:39:27;21.80;99.90
23803;DHT22;12082;51.786;6.018;2023-06-05T09:41:54;21.40;99.90
23803;DHT22;12082;51.786;6.018;2023-06-05T09:44:21;21.00;99.90
23803;DHT22;12082;51.786;6.018;2023-06-05T09:49:29;20.90;99.90
23803;DHT22;12082;51.786;6.018;2023-06-05T09:51:56;21.10;99.90
23803;DHT22;12082;51.786;6.018;2023-06-05T09:54:22;21.60;99.90
23803;DHT22;12082;51.786;6.018;2023-06-05T09:56:50;21.50;99.90
23803;DHT22;12082;51.786;6.018;2023-06-05T09:59:20;21.50;99.90
23803;DHT22;12082;51.786;6.018;2023-06-05T10:01:51;21.20;99.90
23803;DHT22;12082;51.786;6.018;2023-06-05T10:04:20;21.10;99.90
23803;DHT22;12082;51.786;6.018;2023-06-05T10:06:47;21.00;99.90
23803;DHT22;12082;51.786;6.018;2023-06-05T10:09:14;20.80;99.90
23803;DHT22;12082;51.786;6.018;2023-06-05T10:11:41;20.80;99.90
23803;DHT22;12082;51.786;6.018;2023-06-05T10:14:09;20.70;99.90
23803;DHT22;12082;51.786;6.018;2023-06-05T10:16:34;20.90;99.90
23803;DHT22;12082;51.786;6.018;2023-06-05T10:19:00;20.90;99.90
23803;DHT22;12082;51.786;6.018;2023-06-05T10:21:28;20.90;99.90
23803;DHT22;12082;51.786;6.018;2023-06-05T10:24:18;21.10;99.90
23803;DHT22;12082;51.786;6.018;2023-06-05T10:33:31;20.80;99.90
23803;DHT22;12082;51.786;6.018;2023-06-05T10:38:20;21.00;99.90
23803;DHT22;12082;51.786;6.018;2023-06-05T10:40:53;21.00;99.90
23803;DHT22;12082;51.786;6.018;2023-06-05T10:43:29;21.20;99.90
23803;DHT22;12082;51.786;6.018;2023-06-05T10:45:56;21.20;99.90
23803;DHT22;12082;51.786;6.018;2023-06-05T10:54:13;21.30;99.90
23803;DHT22;12082;51.786;6.018;2023-06-05T10:59:39;21.40;99.90
23803;DHT22;12082;51.786;6.018;2023-06-05T11:07:26;21.20;99.90
23803;DHT22;12082;51.786;6.018;2023-06-05T11:12:27;21.30;99.90
23803;DHT22;12082;51.786;6.018;2023-06-05T11:15:13;21.40;99.90
23803;DHT22;12082;51.786;6.018;2023-06-05T11:17:41;21.50;99.90
23803;DHT22;12082;51.786;6.018;2023-06-05T11:20:54;21.70;99.90
23803;DHT22;12082;51.786;6.018;2023-06-05T11:28:03;22.00;99.90
23803;DHT22;12082;51.786;6.018;2023-06-05T11:30:43;21.70;99.90
23803;DHT22;12082;51.786;6.018;2023-06-05T11:33:13;21.90;99.90
23803;DHT22;12082;51.786;6.018;2023-06-05T11:35:41;22.00;99.90
23803;DHT22;12082;51.786;6.018;2023-06-05T11:38:17;22.10;99.90
23803;DHT22;12082;51.786;6.018;2023-06-05T11:40:44;22.00;99.90
23803;DHT22;12082;51.786;6.018;2023-06-05T11:43:11;22.00;99.90
23803;DHT22;12082;51.786;6.018;2023-06-05T11:45:40;22.00;99.90
23803;DHT22;12082;51.786;6.018;2023-06-05T11:48:09;22.20;99.90
23803;DHT22;12082;51.786;6.018;2023-06-05T11:50:36;22.20;99.90
23803;DHT22;12082;51.786;6.018;2023-06-05T11:53:11;22.20;99.90
23803;DHT22;12082;51.786;6.018;2023-06-05T11:55:37;22.20;99.90
23803;DHT22;12082;51.786;6.018;2023-06-05T11:58:22;22.20;99.90
23803;DHT22;12082;51.786;6.018;2023-06-05T12:00:49;22.00;99.90
23803;DHT22;12082;51.786;6.018;2023-06-05T12:03:22;22.20;99.90
23803;DHT22;12082;51.786;6.018;2023-06-05T12:05:48;22.20;99.90
23803;DHT22;12082;51.786;6.018;2023-06-05T12:08:28;22.20;99.90
23803;DHT22;12082;51.786;6.018;2023-06-05T12:10:55;22.30;99.90
23803;DHT22;12082;51.786;6.018;2023-06-05T12:13:50;22.40;99.90
23803;DHT22;12082;51.786;6.018;2023-06-05T12:16:17;22.40;99.90
23803;DHT22;12082;51.786;6.018;2023-06-05T12:18:44;22.40;99.90
23803;DHT22;12082;51.786;6.018;2023-06-05T12:21:24;22.60;99.90
23803;DHT22;12082;51.786;6.018;2023-06-05T12:23:50;22.60;99.90
23803;DHT22;12082;51.786;6.018;2023-06-05T12:26:16;22.50;99.90
23803;DHT22;12082;51.786;6.018;2023-06-05T12:28:43;22.60;99.90
23803;DHT22;12082;51.786;6.018;2023-06-05T12:31:10;22.70;99.90
23803;DHT22;12082;51.786;6.018;2023-06-05T12:33:49;22.90;99.90
23803;DHT22;12082;51.786;6.018;2023-06-05T12:36:14;22.80;99.90
23803;DHT22;12082;51.786;6.018;2023-06-05T12:38:42;22.90;99.90
23803;DHT22;12082;51.786;6.018;2023-06-05T12:41:08;23.10;99.90
23803;DHT22;12082;51.786;6.018;2023-06-05T12:43:34;23.20;99.90
23803;DHT22;12082;51.786;6.018;2023-06-05T12:45:59;23.20;99.90
23803;DHT22;12082;51.786;6.018;2023-06-05T12:48:26;23.70;99.90
23803;DHT22;12082;51.786;6.018;2023-06-05T12:50:51;23.20;99.90
23803;DHT22;12082;51.786;6.018;2023-06-05T12:53:17;23.20;99.90
23803;DHT22;12082;51.786;6.018;2023-06-05T12:55:43;23.20;99.90
23803;DHT22;12082;51.786;6.018;2023-06-05T12:58:09;23.20;99.90
23803;DHT22;12082;51.786;6.018;2023-06-05T13:00:35;23.40;99.90
23803;DHT22;12082;51.786;6.018;2023-06-05T13:03:01;23.60;99.90
23803;DHT22;12082;51.786;6.018;2023-06-05T13:05:29;23.60;99.90
23803;DHT22;12082;51.786;6.018;2023-06-05T13:07:57;23.60;99.90
23803;DHT22;12082;51.786;6.018;2023-06-05T13:10:23;23.60;99.90
23803;DHT22;12082;51.786;6.018;2023-06-05T13:12:49;23.70;99.90
23803;DHT22;12082;51.786;6.018;2023-06-05T13:15:14;23.70;99.90
23803;DHT22;12082;51.786;6.018;2023-06-05T13:17:40;23.60;99.90
23803;DHT22;12082;51.786;6.018;2023-06-05T13:20:06;23.70;99.90
23803;DHT22;12082;51.786;6.018;2023-06-05T13:22:34;23.70;99.90
23803;DHT22;12082;51.786;6.018;2023-06-05T13:25:00;24.00;99.90
23803;DHT22;12082;51.786;6.018;2023-06-05T13:27:26;23.80;99.90
23803;DHT22;12082;51.786;6.018;2023-06-05T13:29:51;23.70;99.90
23803;DHT22;12082;51.786;6.018;2023-06-05T13:32:17;23.80;99.90
23803;DHT22;12082;51.786;6.018;2023-06-05T13:34:42;23.80;99.90
23803;DHT22;12082;51.786;6.018;2023-06-05T13:37:08;24.00;99.90
23803;DHT22;12082;51.786;6.018;2023-06-05T13:39:33;23.90;99.90
23803;DHT22;12082;51.786;6.018;2023-06-05T13:41:59;23.90;99.90
23803;DHT22;12082;51.786;6.018;2023-06-05T13:44:27;23.90;99.90
23803;DHT22;12082;51.786;6.018;2023-06-05T13:46:53;24.00;99.90
23803;DHT22;12082;51.786;6.018;2023-06-05T13:49:19;24.10;99.90
23803;DHT22;12082;51.786;6.018;2023-06-05T13:51:44;24.00;99.90
23803;DHT22;12082;51.786;6.018;2023-06-05T13:54:10;24.00;99.90
23803;DHT22;12082;51.786;6.018;2023-06-05T13:56:35;24.10;99.90
23803;DHT22;12082;51.786;6.018;2023-06-05T13:59:01;24.30;99.90
23803;DHT22;12082;51.786;6.018;2023-06-05T14:01:26;24.10;99.90
23803;DHT22;12082;51.786;6.018;2023-06-05T14:03:52;24.40;99.90
23803;DHT22;12082;51.786;6.018;2023-06-05T14:06:18;24.30;99.90
23803;DHT22;12082;51.786;6.018;2023-06-05T14:08:44;24.20;99.90
23803;DHT22;12082;51.786;6.018;2023-06-05T14:11:10;24.40;99.90
23803;DHT22;12082;51.786;6.018;2023-06-05T14:13:36;24.30;99.90
23803;DHT22;12082;51.786;6.018;2023-06-05T14:16:02;24.30;99.90
23803;DHT22;12082;51.786;6.018;2023-06-05T14:18:29;24.40;99.90
23803;DHT22;12082;51.786;6.018;2023-06-05T14:20:55;24.50;99.90
23803;DHT22;12082;51.786;6.018;2023-06-05T14:23:21;24.60;99.90
23803;DHT22;12082;51.786;6.018;2023-06-05T14:25:49;24.40;99.90
23803;DHT22;12082;51.786;6.018;2023-06-05T14:28:14;24.50;99.90
23803;DHT22;12082;51.786;6.018;2023-06-05T14:30:40;24.50;99.90
23803;DHT22;12082;51.786;6.018;2023-06-05T14:33:06;24.60;99.90
23803;DHT22;12082;51.786;6.018;2023-06-05T14:35:31;24.50;99.90
23803;DHT22;12082;51.786;6.018;2023-06-05T14:37:57;24.60;99.90
23803;DHT22;12082;51.786;6.018;2023-06-05T14:40:23;24.70;99.90
23803;DHT22;12082;51.786;6.018;2023-06-05T14:42:51;24.70;99.90
23803;DHT22;12082;51.786;6.018;2023-06-05T14:45:17;24.80;99.90
23803;DHT22;12082;51.786;6.018;2023-06-05T14:47:43;24.70;99.90
23803;DHT22;12082;51.786;6.018;2023-06-05T14:50:10;24.70;99.90
23803;DHT22;12082;51.786;6.018;2023-06-05T14:52:36;24.60;99.90
23803;DHT22;12082;51.786;6.018;2023-06-05T14:55:02;24.40;99.90
23803;DHT22;12082;51.786;6.018;2023-06-05T14:57:28;24.50;99.90
23803;DHT22;12082;51.786;6.018;2023-06-05T14:59:54;24.60;99.90
23803;DHT22;12082;51.786;6.018;2023-06-05T15:02:21;24.60;99.90
23803;DHT22;12082;51.786;6.018;2023-06-05T15:04:50;24.60;99.90
23803;DHT22;12082;51.786;6.018;2023-06-05T15:07:18;24.60;99.90
23803;DHT22;12082;51.786;6.018;2023-06-05T15:09:48;24.70;99.90
23803;DHT22;12082;51.786;6.018;2023-06-05T15:12:14;24.70;99.90
23803;DHT22;12082;51.786;6.018;2023-06-05T15:14:40;24.90;99.90
23803;DHT22;12082;51.786;6.018;2023-06-05T15:17:05;24.70;99.90
23803;DHT22;12082;51.786;6.018;2023-06-05T15:19:33;24.90;99.90
23803;DHT22;12082;51.786;6.018;2023-06-05T15:21:59;24.80;99.90
23803;DHT22;12082;51.786;6.018;2023-06-05T15:24:26;24.70;99.90
23803;DHT22;12082;51.786;6.018;2023-06-05T15:26:52;24.60;99.60
23803;DHT22;12082;51.786;6.018;2023-06-05T15:29:17;24.60;99.90
23803;DHT22;12082;51.786;6.018;2023-06-05T15:31:43;24.70;99.90
23803;DHT22;12082;51.786;6.018;2023-06-05T15:34:09;24.70;99.70
23803;DHT22;12082;51.786;6.018;2023-06-05T15:36:34;24.70;98.90
23803;DHT22;12082;51.786;6.018;2023-06-05T15:39:00;24.70;98.50
23803;DHT22;12082;51.786;6.018;2023-06-05T15:41:25;24.70;97.80
23803;DHT22;12082;51.786;6.018;2023-06-05T15:43:51;24.90;99.40
23803;DHT22;12082;51.786;6.018;2023-06-05T15:46:17;24.90;99.90
23803;DHT22;12082;51.786;6.018;2023-06-05T15:48:43;24.80;99.90
23803;DHT22;12082;51.786;6.018;2023-06-05T15:51:08;24.80;97.10
23803;DHT22;12082;51.786;6.018;2023-06-05T15:53:34;24.90;98.50
23803;DHT22;12082;51.786;6.018;2023-06-05T15:55:59;24.80;99.50
23803;DHT22;12082;51.786;6.018;2023-06-05T15:58:27;24.70;99.90
23803;DHT22;12082;51.786;6.018;2023-06-05T16:00:52;24.50;99.90
23803;DHT22;12082;51.786;6.018;2023-06-05T16:03:18;24.40;99.90
23803;DHT22;12082;51.786;6.018;2023-06-05T16:05:45;23.60;99.90
23803;DHT22;12082;51.786;6.018;2023-06-05T16:08:11;22.50;99.90
23803;DHT22;12082;51.786;6.018;2023-06-05T16:10:36;21.80;99.90
23803;DHT22;12082;51.786;6.018;2023-06-05T16:13:02;21.50;99.90